Time;durP1;ratioP1;P1;durP2;ratioP2;P2;SDS_P1;SDS_P2;PMS_P1;PMS_P2;Temp;Humidity;BMP_temperature;BMP_pressure;BME280_temperature;BME280_humidity;BME280_pressure;Samples;Min_cycle;Max_cycle;Signal;HPM_P1;HPM_P2
2023/05/21 00:00:27;;;;;;;6.80;2.90;;;;;;;24.56;28.79;100799.75;108037;1254;74192;-66
2023/05/21 00:02:54;;;;;;;7.30;2.90;;;;;;;24.75;28.48;100799.32;108109;1254;63060;-64
2023/05/21 00:05:21;;;;;;;9.60;2.60;;;;;;;24.63;28.64;100797.71;108116;1253;60606;-65
2023/05/21 00:07:48;;;;;;;9.10;2.80;;;;;;;24.38;28.83;100796.77;108080;1253;73110;-66
2023/05/21 00:10:14;;;;;;;8.60;3.50;;;;;;;24.29;29.04;100800.55;108146;1253;70044;-67
2023/05/21 00:12:41;;;;;;;5.50;2.70;;;;;;;24.25;28.95;100801.59;108101;1253;73593;-65
2023/05/21 00:15:09;;;;;;;6.50;3.30;;;;;;;24.15;29.20;100799.38;108051;1253;61549;-67
2023/05/21 00:17:36;;;;;;;9.60;2.80;;;;;;;24.22;29.19;100797.73;108154;1253;60190;-66
2023/05/21 00:20:07;;;;;;;6.00;2.80;;;;;;;24.33;28.88;100797.66;108068;1253;74315;-66
2023/05/21 00:22:35;;;;;;;4.40;2.90;;;;;;;24.04;29.23;100800.30;108073;1256;70997;-66
2023/05/21 00:25:02;;;;;;;9.30;2.90;;;;;;;24.14;29.19;100798.09;108030;1253;72301;-67
2023/05/21 00:27:29;;;;;;;7.70;2.90;;;;;;;24.12;29.22;100801.80;108046;1257;62174;-66
2023/05/21 00:29:56;;;;;;;8.50;3.00;;;;;;;24.10;29.16;100803.05;108007;1253;60311;-64
2023/05/21 00:32:22;;;;;;;13.00;3.30;;;;;;;23.92;29.36;100807.52;108036;1253;73196;-66
2023/05/21 00:34:49;;;;;;;4.90;3.00;;;;;;;24.20;29.19;100805.63;108037;1253;70906;-67
2023/05/21 00:37:17;;;;;;;9.10;3.00;;;;;;;24.04;29.35;100798.34;108055;1253;72866;-66
2023/05/21 00:39:43;;;;;;;6.20;2.80;;;;;;;23.73;29.62;100794.73;108013;1253;61024;-66
2023/05/21 00:42:16;;;;;;;8.90;3.10;;;;;;;23.74;29.52;100792.32;108093;1253;61276;-66
2023/05/21 00:44:45;;;;;;;9.20;2.80;;;;;;;23.84;29.41;100793.88;108080;1253;73577;-67
2023/05/21 00:47:12;;;;;;;7.80;2.80;;;;;;;23.66;29.79;100795.29;108128;1253;68930;-67
2023/05/21 00:49:39;;;;;;;7.10;2.90;;;;;;;23.52;29.83;100790.20;108092;1253;73833;-65
2023/05/21 00:52:06;;;;;;;7.30;2.90;;;;;;;23.40;30.01;100792.20;108080;1253;62391;-66
2023/05/21 00:54:33;;;;;;;4.90;3.10;;;;;;;23.32;30.04;100791.23;107893;1253;61345;-66
2023/05/21 00:57:00;;;;;;;9.60;2.90;;;;;;;23.37;29.96;100793.55;108098;1253;74523;-66
2023/05/21 00:59:27;;;;;;;12.40;3.20;;;;;;;23.48;29.88;100795.84;108089;1253;70616;-65
2023/05/21 01:01:54;;;;;;;11.00;3.20;;;;;;;23.52;30.07;100794.70;108033;1256;73709;-64
2023/05/21 01:04:22;;;;;;;4.40;2.80;;;;;;;23.47;29.99;100794.16;108075;1254;62020;-62
2023/05/21 01:06:52;;;;;;;4.50;2.90;;;;;;;23.53;29.99;100791.02;108086;1254;59568;-63
2023/05/21 01:09:20;;;;;;;4.10;3.00;;;;;;;23.51;29.84;100794.88;108048;1254;74563;-66
2023/05/21 01:11:48;;;;;;;8.40;3.10;;;;;;;23.70;29.59;100794.50;107883;1254;70332;-67
2023/05/21 01:14:15;;;;;;;6.80;3.20;;;;;;;23.61;30.01;100795.56;108004;1255;71705;-67
2023/05/21 01:16:44;;;;;;;7.80;2.80;;;;;;;23.42;29.90;100791.86;108038;1254;62963;-64
2023/05/21 01:19:14;;;;;;;8.50;3.30;;;;;;;23.23;30.23;100786.02;108028;1254;60270;-65
2023/05/21 01:21:44;;;;;;;4.50;2.80;;;;;;;23.24;30.20;100786.18;108066;1254;73858;-64
2023/05/21 01:24:10;;;;;;;4.50;2.90;;;;;;;23.13;30.38;100786.60;108055;1254;71554;-66
2023/05/21 01:26:40;;;;;;;5.80;3.00;;;;;;;23.22;30.38;100779.83;108070;1254;72737;-64
2023/05/21 01:29:11;;;;;;;6.80;3.00;;;;;;;23.25;30.28;100779.80;108099;1254;62856;-65
2023/05/21 01:32:16;;;;;;;10.50;3.50;;;;;;;23.13;30.62;100778.93;107913;1254;60756;-65
2023/05/21 01:34:57;;;;;;;8.00;3.70;;;;;;;23.25;30.34;100776.98;108081;1254;74523;-67
2023/05/21 01:37:29;;;;;;;11.00;3.40;;;;;;;23.35;30.10;100777.58;107890;1254;70739;-66
2023/05/21 01:40:02;;;;;;;7.90;3.20;;;;;;;23.39;30.05;100781.02;108053;1254;73740;-66
2023/05/21 01:42:29;;;;;;;9.60;3.40;;;;;;;23.21;30.17;100779.80;108065;1254;63112;-66
2023/05/21 01:44:56;;;;;;;6.90;3.10;;;;;;;23.05;30.50;100779.97;107926;1254;60882;-67
2023/05/21 01:47:23;;;;;;;10.00;3.80;;;;;;;22.59;30.93;100782.27;107987;1254;73403;-66
2023/05/21 01:49:51;;;;;;;8.00;3.80;;;;;;;22.64;31.00;100786.52;107985;1254;71337;-66
2023/05/21 01:52:18;;;;;;;10.10;3.50;;;;;;;22.65;30.79;100782.50;107900;1254;74107;-66
2023/05/21 01:54:44;;;;;;;7.30;3.60;;;;;;;22.56;31.06;100779.27;107936;1254;63225;-66
2023/05/21 01:57:11;;;;;;;6.10;3.70;;;;;;;22.79;30.75;100778.41;108013;1253;60720;-67
2023/05/21 01:59:39;;;;;;;8.70;3.00;;;;;;;22.81;30.84;100773.94;107996;1254;74195;-66
2023/05/21 02:02:06;;;;;;;7.40;3.60;;;;;;;22.63;30.81;100781.42;107703;1254;71325;-65
2023/05/21 02:04:33;;;;;;;12.40;3.70;;;;;;;22.69;30.77;100779.51;108030;1256;73718;-68
2023/05/21 02:06:59;;;;;;;5.50;3.40;;;;;;;22.95;30.64;100781.42;108008;1254;63190;-65
2023/05/21 02:09:26;;;;;;;5.90;3.40;;;;;;;22.73;30.68;100783.67;107999;1254;60337;-66
2023/05/21 02:11:54;;;;;;;5.40;3.70;;;;;;;22.39;31.07;100784.86;108038;1254;73809;-67
2023/05/21 02:14:21;;;;;;;8.80;4.40;;;;;;;22.36;31.19;100785.24;107877;1254;70391;-65
2023/05/21 02:16:47;;;;;;;5.10;3.30;;;;;;;22.38;31.24;100787.98;107971;1257;72267;-66
2023/05/21 02:19:14;;;;;;;10.20;3.70;;;;;;;22.57;31.21;100788.29;107966;1254;62733;-67
2023/05/21 02:21:41;;;;;;;11.00;3.90;;;;;;;22.63;30.93;100791.94;107992;1254;60310;-66
2023/05/21 02:24:07;;;;;;;5.50;3.30;;;;;;;22.35;31.15;100791.61;107986;1254;72815;-66
2023/05/21 02:26:34;;;;;;;5.50;3.70;;;;;;;22.64;30.92;100794.19;108028;1254;71073;-66
2023/05/21 02:29:02;;;;;;;6.50;3.80;;;;;;;22.47;31.01;100793.95;107893;1254;72844;-65
2023/05/21 02:31:29;;;;;;;11.10;3.70;;;;;;;22.09;31.85;100795.02;107973;1254;62051;-66
2023/05/21 02:33:56;;;;;;;11.20;4.00;;;;;;;22.42;31.36;100792.70;108019;1254;60358;-63
2023/05/21 02:36:24;;;;;;;8.60;4.10;;;;;;;22.36;31.40;100792.40;108008;1254;74686;-64
2023/05/21 02:38:50;;;;;;;11.40;4.10;;;;;;;22.24;31.58;100796.37;107849;1254;70415;-65
2023/05/21 02:41:17;;;;;;;5.40;3.60;;;;;;;22.08;31.63;100799.67;107948;1257;71779;-66
2023/05/21 02:43:44;;;;;;;7.00;3.70;;;;;;;21.96;31.89;100802.32;107890;1254;62495;-66
2023/05/21 02:46:11;;;;;;;8.10;3.70;;;;;;;21.88;31.98;100796.36;108080;1254;61301;-68
2023/05/21 02:48:39;;;;;;;7.00;3.80;;;;;;;21.81;32.04;100793.30;107934;1255;74058;-66
2023/05/21 02:51:05;;;;;;;9.90;3.70;;;;;;;22.13;31.81;100790.36;107880;1254;69091;-65
2023/05/21 02:53:32;;;;;;;8.70;3.90;;;;;;;22.40;31.40;100789.79;107980;1254;73905;-65
2023/05/21 02:55:58;;;;;;;7.20;3.50;;;;;;;22.49;31.26;100790.73;108036;1254;60436;-67
2023/05/21 02:58:26;;;;;;;15.70;4.40;;;;;;;22.53;31.26;100790.25;108085;1253;60311;-66
2023/05/21 03:00:54;;;;;;;7.30;4.30;;;;;;;22.57;31.36;100786.02;108060;1254;74308;-65
2023/05/21 03:03:21;;;;;;;8.70;3.60;;;;;;;22.53;31.31;100787.55;108000;1256;71391;-66
2023/05/21 03:05:48;;;;;;;7.10;3.70;;;;;;;22.68;31.26;100794.25;108108;1254;73387;-67
2023/05/21 03:08:15;;;;;;;8.90;4.10;;;;;;;22.85;30.98;100793.31;108081;1254;63052;-66
2023/05/21 03:10:42;;;;;;;8.00;4.20;;;;;;;23.01;30.75;100788.13;107933;1256;60290;-67
2023/05/21 03:13:09;;;;;;;11.90;4.10;;;;;;;23.04;30.61;100781.06;108076;1254;74654;-68
2023/05/21 03:15:37;;;;;;;5.90;3.50;;;;;;;23.25;30.24;100781.59;108104;1254;71090;-66
2023/05/21 03:18:05;;;;;;;10.30;4.40;;;;;;;23.21;30.42;100784.27;108077;1254;73347;-66
2023/05/21 03:20:33;;;;;;;6.50;4.10;;;;;;;23.42;30.06;100784.56;108008;1254;63072;-67
2023/05/21 03:23:03;;;;;;;11.10;4.30;;;;;;;23.51;29.82;100785.20;108063;1254;61483;-67
2023/05/21 03:25:29;;;;;;;6.80;4.10;;;;;;;23.68;29.71;100788.39;108050;1253;74807;-67
2023/05/21 03:27:56;;;;;;;8.80;4.20;;;;;;;24.00;29.15;100795.02;108079;1253;70316;-65
2023/05/21 03:30:45;;;;;;;14.20;5.00;;;;;;;23.87;29.32;100795.75;108049;1253;73704;-66
2023/05/21 03:33:35;;;;;;;14.00;4.70;;;;;;;24.02;29.59;100798.69;107971;1253;61411;-68
2023/05/21 03:36:09;;;;;;;13.00;4.60;;;;;;;24.72;28.32;100800.13;108006;1253;61457;-68
2023/05/21 03:38:36;;;;;;;10.70;4.70;;;;;;;24.77;28.29;100803.52;108111;1253;74706;-66
2023/05/21 03:41:05;;;;;;;12.90;4.80;;;;;;;25.17;27.50;100805.22;108071;1253;71112;-66
2023/05/21 03:43:33;;;;;;;9.80;5.00;;;;;;;25.76;27.03;100802.73;108019;1253;74023;-68
2023/05/21 03:46:00;;;;;;;8.80;5.20;;;;;;;25.75;26.86;100804.91;108107;1253;61491;-67
2023/05/21 03:48:48;;;;;;;10.90;5.00;;;;;;;26.02;26.44;100804.66;108004;1253;60456;-68
2023/05/21 03:51:16;;;;;;;9.80;5.00;;;;;;;26.29;26.19;100804.77;108204;1253;73456;-67
2023/05/21 03:53:45;;;;;;;8.70;4.80;;;;;;;26.78;25.79;100804.51;108035;1253;71304;-66
2023/05/21 03:56:12;;;;;;;10.80;5.60;;;;;;;27.39;24.84;100803.88;108026;1253;73250;-66
2023/05/21 03:58:40;;;;;;;11.60;5.20;;;;;;;27.40;24.63;100805.21;108144;1253;60643;-67
2023/05/21 04:01:07;;;;;;;9.70;5.30;;;;;;;27.40;24.75;100804.67;107983;1253;60425;-69
2023/05/21 04:03:36;;;;;;;9.30;4.90;;;;;;;27.48;24.59;100809.36;108204;1253;73999;-67
2023/05/21 04:06:08;;;;;;;11.10;5.20;;;;;;;27.90;24.42;100805.23;108164;1253;71542;-68
2023/05/21 04:08:36;;;;;;;7.20;4.70;;;;;;;28.56;23.55;100799.10;108172;1253;72043;-66
2023/05/21 04:11:03;;;;;;;7.90;4.50;;;;;;;28.20;23.75;100796.08;108106;1253;60244;-68
2023/05/21 04:13:30;;;;;;;7.50;5.10;;;;;;;28.64;23.37;100796.98;108128;1253;60393;-66
2023/05/21 04:15:56;;;;;;;8.60;5.60;;;;;;;28.11;23.43;100794.29;108133;1253;74879;-66
2023/05/21 04:18:24;;;;;;;9.40;5.20;;;;;;;27.99;23.79;100793.70;108032;1254;70584;-67
2023/05/21 04:20:52;;;;;;;9.40;4.60;;;;;;;28.13;23.85;100794.99;108102;1253;73481;-67
2023/05/21 04:23:22;;;;;;;13.10;5.60;;;;;;;28.35;23.58;100799.59;108077;1253;61645;-66
2023/05/21 04:25:49;;;;;;;11.20;4.80;;;;;;;28.53;23.50;100798.90;108085;1253;61325;-67
2023/05/21 04:28:19;;;;;;;8.80;4.90;;;;;;;28.88;23.15;100795.34;108021;1253;74819;-67
2023/05/21 04:30:46;;;;;;;6.90;4.70;;;;;;;29.55;22.35;100790.10;108007;1253;71355;-65
2023/05/21 04:33:16;;;;;;;8.80;4.40;;;;;;;29.42;22.41;100789.23;108058;1253;74270;-67
2023/05/21 04:35:45;;;;;;;6.80;4.40;;;;;;;29.24;22.61;100795.02;108141;1253;60602;-68
2023/05/21 04:38:12;;;;;;;9.20;4.60;;;;;;;29.41;22.49;100794.76;108186;1253;61197;-68
2023/05/21 04:40:39;;;;;;;7.20;4.50;;;;;;;29.20;22.35;100798.27;108000;1253;72952;-68
2023/05/21 04:43:07;;;;;;;8.40;4.20;;;;;;;29.28;22.64;100793.41;108105;1257;71341;-68
2023/05/21 04:45:34;;;;;;;6.30;4.40;;;;;;;29.53;22.17;100787.00;108078;1253;71488;-66
2023/05/21 04:48:02;;;;;;;6.70;4.10;;;;;;;29.33;22.40;100788.95;108122;1253;60303;-68
2023/05/21 04:50:30;;;;;;;9.00;4.70;;;;;;;29.56;22.21;100784.34;108242;1253;59975;-66
2023/05/21 04:52:57;;;;;;;4.50;3.70;;;;;;;29.76;22.13;100780.70;108101;1253;74785;-66
2023/05/21 04:55:26;;;;;;;11.00;4.70;;;;;;;29.94;22.00;100777.70;108140;1253;71337;-67
2023/05/21 04:57:53;;;;;;;6.50;4.70;;;;;;;30.26;21.85;100779.84;108067;1253;73754;-66
2023/05/21 05:00:20;;;;;;;11.40;4.50;;;;;;;30.52;21.55;100782.17;108082;1253;60721;-67
2023/05/21 05:02:47;;;;;;;14.20;4.30;;;;;;;31.01;21.20;100786.61;108115;1253;61464;-69
2023/05/21 05:05:14;;;;;;;12.10;4.40;;;;;;;30.94;21.06;100784.68;108046;1254;72138;-67
2023/05/21 05:07:41;;;;;;;10.30;3.80;;;;;;;30.81;21.11;100783.14;107967;1254;70347;-68
2023/05/21 05:10:08;;;;;;;8.50;4.20;;;;;;;30.88;21.13;100781.02;108062;1256;70709;-69
2023/05/21 05:12:35;;;;;;;9.10;4.20;;;;;;;30.91;20.98;100778.19;108034;1252;62069;-67
2023/05/21 05:15:02;;;;;;;9.10;4.00;;;;;;;31.13;21.20;100776.84;108060;1253;60491;-68
2023/05/21 05:17:29;;;;;;;5.80;3.80;;;;;;;31.42;21.14;100773.87;108132;1257;74069;-68
2023/05/21 05:19:57;;;;;;;6.50;3.80;;;;;;;31.84;20.70;100773.89;108130;1253;70825;-67
2023/05/21 05:22:25;;;;;;;6.40;3.50;;;;;;;32.12;20.38;100776.52;108131;1253;71933;-68
2023/05/21 05:24:51;;;;;;;8.40;3.60;;;;;;;31.89;20.34;100775.55;108053;1253;60314;-67
2023/05/21 05:27:18;;;;;;;8.70;3.90;;;;;;;31.78;20.52;100779.05;107977;1253;60484;-68
2023/05/21 05:29:45;;;;;;;9.60;3.90;;;;;;;31.98;20.50;100775.14;107954;1256;74080;-68
2023/05/21 05:32:12;;;;;;;9.80;3.90;;;;;;;32.51;20.07;100778.18;107972;1255;70106;-68
2023/05/21 05:34:39;;;;;;;7.80;3.90;;;;;;;32.90;19.85;100783.84;107984;1255;73710;-68
2023/05/21 05:37:06;;;;;;;7.50;3.60;;;;;;;32.85;19.94;100780.54;107922;1258;60501;-68
2023/05/21 05:39:34;;;;;;;8.60;3.70;;;;;;;33.01;19.72;100780.19;108015;1254;61479;-68
2023/05/21 05:42:00;;;;;;;8.70;4.30;;;;;;;33.45;19.47;100773.11;107985;1254;73936;-68
2023/05/21 05:44:29;;;;;;;9.10;3.80;;;;;;;33.56;19.28;100770.44;108025;1254;71248;-64
2023/05/21 05:46:56;;;;;;;9.80;3.80;;;;;;;32.90;19.74;100775.67;108082;1255;73513;-68
2023/05/21 05:49:22;;;;;;;7.50;3.40;;;;;;;32.80;19.75;100773.84;108005;1253;61314;-68
2023/05/21 05:51:49;;;;;;;8.60;3.60;;;;;;;32.98;19.56;100779.29;108009;1256;59998;-66
2023/05/21 05:54:16;;;;;;;7.00;3.70;;;;;;;32.89;19.42;100777.86;107994;1254;71973;-69
2023/05/21 05:56:43;;;;;;;6.40;3.50;;;;;;;32.99;19.40;100767.11;107966;1255;71182;-68
2023/05/21 05:59:09;;;;;;;8.70;3.40;;;;;;;33.09;19.40;100773.59;107999;1254;72524;-68
2023/05/21 06:01:37;;;;;;;8.00;3.30;;;;;;;33.18;19.25;100771.89;108148;1254;60655;-69
2023/05/21 06:04:05;;;;;;;6.80;3.40;;;;;;;33.26;19.40;100770.59;108121;1254;60863;-68
2023/05/21 06:06:33;;;;;;;5.90;3.40;;;;;;;33.44;19.19;100770.92;107994;1254;72983;-69
2023/05/21 06:09:00;;;;;;;5.10;3.30;;;;;;;33.59;19.06;100764.81;108039;1254;69417;-68
2023/05/21 06:11:27;;;;;;;8.70;3.10;;;;;;;33.66;19.09;100763.00;107867;1256;73553;-68
2023/05/21 06:13:54;;;;;;;8.00;3.20;;;;;;;33.79;18.81;100764.70;107865;1254;60802;-68
2023/05/21 06:16:21;;;;;;;9.90;3.30;;;;;;;33.79;18.76;100764.11;107927;1255;61155;-69
2023/05/21 06:18:47;;;;;;;6.90;3.20;;;;;;;34.25;18.28;100762.80;107982;1255;65154;-69
2023/05/21 06:21:14;;;;;;;5.20;3.10;;;;;;;34.11;18.40;100763.66;107969;1254;70194;-68
2023/05/21 06:23:41;;;;;;;8.80;3.70;;;;;;;33.71;18.74;100767.92;107906;1258;72024;-68
2023/05/21 06:26:08;;;;;;;8.50;3.50;;;;;;;33.34;19.00;100768.64;108014;1253;60554;-69
2023/05/21 06:28:35;;;;;;;7.60;3.00;;;;;;;33.32;18.89;100771.86;107997;1253;60328;-69
2023/05/21 06:31:03;;;;;;;6.30;3.50;;;;;;;33.48;18.62;100771.54;108121;1253;74947;-68
2023/05/21 06:33:30;;;;;;;7.90;3.00;;;;;;;33.62;18.62;100765.88;108117;1257;70303;-68
2023/05/21 06:35:57;;;;;;;7.40;2.80;;;;;;;34.22;18.48;100767.40;108105;1253;72117;-68
2023/05/21 06:38:24;;;;;;;7.10;3.40;;;;;;;34.63;18.05;100765.16;108058;1257;59177;-67
2023/05/21 06:40:51;;;;;;;6.80;2.80;;;;;;;34.84;17.75;100763.48;108165;1253;60531;-67
2023/05/21 06:43:39;;;;;;;7.80;3.10;;;;;;;34.91;17.77;100760.73;108040;1253;65783;-68
2023/05/21 06:46:24;;;;;;;11.00;3.10;;;;;;;34.89;17.93;100762.63;108002;1253;62540;-68
2023/05/21 06:48:52;;;;;;;8.50;2.90;;;;;;;34.84;17.64;100758.27;108102;1257;65413;-68
2023/05/21 06:51:20;;;;;;;7.20;2.50;;;;;;;34.89;17.59;100755.14;108129;1253;59693;-68
2023/05/21 06:53:47;;;;;;;8.40;3.10;;;;;;;34.79;17.28;100757.38;108171;1253;60299;-69
2023/05/21 06:56:14;;;;;;;7.90;2.70;;;;;;;34.52;17.25;100750.50;108131;1253;65112;-69
2023/05/21 06:58:42;;;;;;;6.40;2.80;;;;;;;34.78;17.25;100746.73;108133;1253;62646;-69
2023/05/21 07:01:10;;;;;;;7.50;3.00;;;;;;;35.26;17.09;100743.59;108009;1253;64950;-68
2023/05/21 07:03:37;;;;;;;6.70;3.40;;;;;;;35.40;16.81;100743.64;108150;1253;60466;-68
2023/05/21 07:06:06;;;;;;;11.30;3.00;;;;;;;35.82;16.57;100738.17;107921;1253;154018;-70
2023/05/21 07:09:28;;;;;;;7.10;3.00;;;;;;;33.47;18.33;100740.75;104753;1292;601088;-68
2023/05/21 07:11:55;;;;;;;7.80;2.80;;;;;;;34.66;17.22;100732.46;107250;1266;59381;-69
2023/05/21 07:14:24;;;;;;;5.50;2.60;;;;;;;34.91;17.27;100728.32;107240;1266;59241;-67
2023/05/21 07:16:51;;;;;;;4.90;2.80;;;;;;;35.48;17.05;100723.87;107271;1266;64819;-68
2023/05/21 07:19:18;;;;;;;5.20;2.50;;;;;;;35.94;16.53;100723.48;107229;1266;62729;-69
2023/05/21 07:21:46;;;;;;;8.60;2.70;;;;;;;36.10;16.16;100722.13;107255;1266;65469;-70
2023/05/21 07:24:12;;;;;;;6.90;3.00;;;;;;;36.06;16.00;100724.60;107139;1268;241074;-67
2023/05/21 07:26:39;;;;;;;8.00;2.30;;;;;;;36.21;15.95;100721.09;107889;1255;59173;-68
2023/05/21 07:29:06;;;;;;;7.60;3.30;;;;;;;36.44;15.70;100729.60;107926;1257;65577;-69
2023/05/21 07:31:33;;;;;;;5.30;2.60;;;;;;;36.09;15.86;100726.30;107912;1257;62852;-67
2023/05/21 07:34:01;;;;;;;5.50;2.80;;;;;;;35.35;16.26;100722.11;107881;1256;73061;-68
2023/05/21 07:36:29;;;;;;;3.60;2.70;;;;;;;34.65;16.77;100727.07;107872;1257;60743;-68
2023/05/21 07:38:57;;;;;;;7.40;2.50;;;;;;;34.32;17.10;100721.55;107859;1257;59388;-69
2023/05/21 07:41:24;;;;;;;7.50;2.90;;;;;;;34.43;16.87;100714.70;107917;1260;73431;-68
2023/05/21 07:43:52;;;;;;;4.20;2.60;;;;;;;34.76;16.80;100711.16;107847;1255;72744;-68
2023/05/21 07:46:19;;;;;;;6.00;2.40;;;;;;;34.87;16.50;100706.93;107908;1256;66405;-68
2023/05/21 07:48:48;;;;;;;10.50;2.80;;;;;;;35.11;16.41;100702.01;107837;1256;59551;-68
2023/05/21 07:51:16;;;;;;;7.40;2.80;;;;;;;34.91;16.71;100700.98;107815;1257;60086;-68
2023/05/21 07:53:45;;;;;;;6.50;2.90;;;;;;;35.06;16.84;100700.25;107847;1262;66394;-68
2023/05/21 07:56:13;;;;;;;6.90;3.10;;;;;;;34.72;16.90;100706.10;107849;1257;63616;-68
2023/05/21 07:58:44;;;;;;;11.40;3.00;;;;;;;35.00;16.97;100694.79;107879;1257;66144;-68
2023/05/21 08:01:12;;;;;;;;;;;;;;;35.13;16.78;100688.75;107973;1256;59660;-70
2023/05/21 08:03:39;;;;;;;8.30;3.00;;;;;;;34.89;16.89;100698.98;107842;1256;59589;-67
2023/05/21 08:06:06;;;;;;;10.60;3.10;;;;;;;34.21;17.18;100703.66;107808;1256;65570;-68
2023/05/21 08:08:33;;;;;;;9.40;3.20;;;;;;;33.73;17.63;100694.29;107797;1257;72856;-68
2023/05/21 08:11:00;;;;;;;14.70;3.70;;;;;;;33.58;17.93;100711.64;107802;1260;75024;-68
2023/05/21 08:13:28;;;;;;;8.50;3.00;;;;;;;33.58;17.94;100708.41;107930;1257;61712;-69
2023/05/21 08:15:55;;;;;;;10.50;3.30;;;;;;;34.07;17.43;100703.38;107896;1257;61568;-69
2023/05/21 08:18:22;;;;;;;7.80;2.70;;;;;;;34.08;17.34;100705.86;107860;1255;71727;-68
2023/05/21 08:20:51;;;;;;;6.10;2.60;;;;;;;34.26;17.41;100698.50;107932;1255;63891;-68
2023/05/21 08:23:18;;;;;;;7.50;3.20;;;;;;;34.54;17.06;100699.55;107871;1257;65250;-69
2023/05/21 08:25:49;;;;;;;6.50;3.40;;;;;;;34.65;17.00;100696.23;107739;1257;58386;-67
2023/05/21 08:28:16;;;;;;;7.00;3.30;;;;;;;34.11;17.24;100700.73;107658;1258;60314;-70
2023/05/21 08:30:42;;;;;;;7.80;3.00;;;;;;;33.90;17.57;100698.71;107623;1257;74554;-69
2023/05/21 08:33:10;;;;;;;12.70;3.30;;;;;;;34.28;17.43;100698.77;107744;1260;63445;-69
2023/05/21 08:35:37;;;;;;;11.20;3.10;;;;;;;34.27;17.59;100698.09;107725;1257;75000;-70
2023/05/21 08:38:17;;;;;;;4.60;3.00;;;;;;;34.63;17.40;100689.27;107643;1257;59689;-68
2023/05/21 08:40:53;;;;;;;8.90;2.60;;;;;;;35.34;16.97;100686.71;107694;1257;59545;-68
2023/05/21 08:43:20;;;;;;;7.60;2.80;;;;;;;35.79;16.66;100682.49;107702;1257;66623;-70
2023/05/21 08:45:52;;;;;;;6.10;2.80;;;;;;;35.36;16.45;100678.95;107655;1257;62824;-67
2023/05/21 08:48:21;;;;;;;10.10;2.70;;;;;;;35.07;16.77;100674.02;107635;1257;64979;-68
2023/05/21 08:50:52;;;;;;;9.40;2.80;;;;;;;35.36;16.67;100674.73;107728;1257;59569;-68
2023/05/21 08:53:26;;;;;;;14.80;2.90;;;;;;;35.17;16.64;100677.69;107717;1257;59132;-68
2023/05/21 08:55:56;;;;;;;8.70;2.60;;;;;;;35.05;16.52;100678.02;107748;1257;66527;-70
2023/05/21 08:58:46;;;;;;;6.80;2.90;;;;;;;35.01;16.14;100677.66;107627;1257;62839;-70
2023/05/21 09:01:18;;;;;;;12.40;3.10;;;;;;;35.05;16.14;100674.94;107756;1257;66172;-70
2023/05/21 09:03:46;;;;;;;5.00;2.80;;;;;;;35.44;15.95;100672.89;107673;1262;59994;-70
2023/05/21 09:06:14;;;;;;;11.50;3.50;;;;;;;35.59;16.13;100670.33;107751;1257;59526;-70
2023/05/21 09:08:43;;;;;;;8.30;3.00;;;;;;;35.71;15.61;100672.93;107938;1254;66491;-70
2023/05/21 09:11:27;;;;;;;7.80;2.70;;;;;;;35.76;15.82;100668.92;107980;1257;63798;-70
2023/05/21 09:13:56;;;;;;;8.50;2.40;;;;;;;35.83;15.90;100666.79;107821;1262;66020;-72
2023/05/21 09:16:47;;;;;;;4.70;2.70;;;;;;;35.80;15.91;100657.47;107696;1257;59130;-68
2023/05/21 09:19:15;;;;;;;8.70;3.10;;;;;;;35.91;16.06;100662.36;107866;1255;59576;-70
2023/05/21 09:21:42;;;;;;;5.10;2.50;;;;;;;36.35;15.95;100656.69;107831;1254;66327;-69
2023/05/21 09:24:11;;;;;;;11.00;3.10;;;;;;;36.93;15.62;100649.84;107876;1254;62751;-69
2023/05/21 09:26:42;;;;;;;8.10;2.80;;;;;;;37.48;14.85;100651.54;107745;1263;66183;-69
2023/05/21 09:29:12;;;;;;;6.60;2.40;;;;;;;37.42;14.43;100649.49;107867;1257;59191;-68
2023/05/21 09:31:43;;;;;;;7.60;2.60;;;;;;;37.21;14.79;100648.48;107811;1257;60226;-69
2023/05/21 09:34:12;;;;;;;12.60;2.60;;;;;;;36.91;14.92;100653.23;108022;1256;66268;-68
2023/05/21 09:36:40;;;;;;;10.10;3.00;;;;;;;36.39;15.37;100655.48;107986;1257;63896;-69
2023/05/21 09:39:15;;;;;;;4.80;2.30;;;;;;;36.10;15.52;100655.33;108090;1257;65002;-70
2023/05/21 09:41:42;;;;;;;7.60;2.50;;;;;;;36.10;15.77;100646.39;107985;1257;62503;-68
2023/05/21 09:44:09;;;;;;;5.90;2.30;;;;;;;35.93;15.78;100646.51;107944;1254;59648;-68
2023/05/21 09:46:39;;;;;;;9.10;3.00;;;;;;;35.64;16.12;100647.98;107718;1257;66766;-69
2023/05/21 09:49:29;;;;;;;8.30;2.50;;;;;;;35.81;15.97;100649.45;107853;1255;62934;-68
2023/05/21 09:51:57;;;;;;;5.30;2.40;;;;;;;36.20;15.90;100642.25;107872;1255;65092;-69
2023/05/21 09:54:25;;;;;;;6.40;2.40;;;;;;;36.53;15.51;100638.39;107897;1256;59767;-69
2023/05/21 09:56:52;;;;;;;11.00;3.20;;;;;;;36.77;15.26;100636.02;107904;1255;59681;-69
2023/05/21 09:59:19;;;;;;;15.60;2.80;;;;;;;36.81;15.23;100643.02;107743;1254;66787;-67
2023/05/21 10:01:48;;;;;;;5.50;2.40;;;;;;;36.92;14.95;100642.77;107948;1256;60470;-70
2023/05/21 10:04:16;;;;;;;6.50;2.50;;;;;;;36.96;14.99;100632.98;107889;1256;65126;-70
2023/05/21 10:06:43;;;;;;;6.40;2.90;;;;;;;37.10;14.73;100631.16;107849;1254;59699;-70
2023/05/21 10:09:10;;;;;;;5.20;2.40;;;;;;;36.81;14.92;100628.02;107869;1256;59524;-70
2023/05/21 10:11:39;;;;;;;8.80;2.20;;;;;;;36.88;14.85;100624.91;107989;1256;66803;-69
2023/05/21 10:14:07;;;;;;;9.80;2.40;;;;;;;37.01;14.84;100623.38;107816;1257;62552;-69
2023/05/21 10:16:34;;;;;;;10.10;3.00;;;;;;;37.00;14.72;100622.33;108146;1257;65124;-69
2023/05/21 10:19:04;;;;;;;7.20;2.90;;;;;;;37.43;14.64;100614.41;108016;1257;59427;-69
2023/05/21 10:21:33;;;;;;;7.50;3.00;;;;;;;37.96;14.29;100607.33;107897;1257;59380;-68
2023/05/21 10:24:01;;;;;;;6.90;3.40;;;;;;;37.60;14.12;100615.23;107842;1257;63285;-69
2023/05/21 10:26:27;;;;;;;7.10;3.40;;;;;;;37.08;13.81;100615.53;108103;1254;63622;-69
2023/05/21 10:28:55;;;;;;;7.20;3.20;;;;;;;36.98;14.02;100609.98;107870;1254;66179;-68
2023/05/21 10:31:22;;;;;;;7.10;3.00;;;;;;;37.10;14.04;100605.92;108103;1254;59632;-69
2023/05/21 10:33:48;;;;;;;5.20;2.50;;;;;;;36.77;14.39;100606.38;108129;1254;59126;-70
2023/05/21 10:36:17;;;;;;;11.10;2.90;;;;;;;36.50;14.76;100612.19;107837;1254;65287;-68
2023/05/21 10:38:44;;;;;;;6.00;3.00;;;;;;;36.93;15.01;100608.63;108077;1259;63672;-68
2023/05/21 10:41:11;;;;;;;10.80;2.70;;;;;;;37.35;14.34;100611.00;108054;1254;66097;-67
2023/05/21 10:44:03;;;;;;;6.50;3.00;;;;;;;37.51;14.33;100612.46;108020;1254;61232;-68
2023/05/21 10:46:46;;;;;;;5.80;2.70;;;;;;;37.43;14.39;100615.61;108053;1254;59554;-67
2023/05/21 10:49:24;;;;;;;8.10;3.20;;;;;;;36.69;14.51;100629.64;108059;1254;67030;-69
2023/05/21 10:52:25;;;;;;;5.70;2.50;;;;;;;36.91;14.40;100620.73;108083;1254;63449;-69
2023/05/21 10:55:39;;;;;;;10.30;2.80;;;;;;;36.96;14.48;100616.14;108106;1254;65204;-69
2023/05/21 10:58:16;;;;;;;8.60;2.50;;;;;;;36.64;15.01;100619.41;107561;1266;59662;-68
2023/05/21 11:00:43;;;;;;;6.60;2.70;;;;;;;36.92;14.69;100620.64;108163;1254;58282;-71
2023/05/21 11:03:11;;;;;;;6.00;2.50;;;;;;;37.44;14.35;100617.03;108105;1254;65161;-69
2023/05/21 11:05:40;;;;;;;10.90;2.90;;;;;;;37.68;14.32;100618.31;108025;1254;63802;-69
2023/05/21 11:08:20;;;;;;;9.30;2.70;;;;;;;37.56;14.57;100611.91;108042;1254;65894;-69
2023/05/21 11:10:51;;;;;;;10.70;3.50;;;;;;;37.56;14.37;100611.75;108095;1254;59660;-69
2023/05/21 11:13:20;;;;;;;6.50;2.80;;;;;;;37.10;14.60;100617.30;108046;1254;59612;-69
2023/05/21 11:16:04;;;;;;;7.00;3.10;;;;;;;36.92;14.97;100615.27;108077;1259;65468;-69
2023/05/21 11:18:34;;;;;;;5.60;2.60;;;;;;;37.42;14.96;100611.57;108040;1254;62769;-70
2023/05/21 11:21:05;;;;;;;8.30;3.00;;;;;;;37.46;14.76;100614.35;108040;1254;65150;-70
2023/05/21 11:23:51;;;;;;;7.30;2.80;;;;;;;37.03;14.67;100625.44;108037;1254;60175;-70
2023/05/21 11:26:18;;;;;;;4.80;2.90;;;;;;;36.72;14.85;100625.61;107919;1254;60300;-70